Time;durP1;ratioP1;P1;durP2;ratioP2;P2;SDS_P1;SDS_P2;PMS_P1;PMS_P2;Temp;Humidity;BMP_temperature;BMP_pressure;BME280_temperature;BME280_humidity;BME280_pressure;Samples;Min_cycle;Max_cycle;Signal;HPM_P1;HPM_P2
2022/07/29 00:01:17;;;;;;;4.10;1.60;;;;;;;18.15;52.73;101452.94;4975007;28;20514;-81
2022/07/29 00:03:42;;;;;;;3.53;2.00;;;;;;;18.13;52.86;101448.59;4970045;28;20074;-82
2022/07/29 00:06:07;;;;;;;5.18;1.85;;;;;;;18.14;52.65;101447.63;4989263;28;20567;-81
2022/07/29 00:08:33;;;;;;;5.40;1.70;;;;;;;18.13;53.21;101441.38;4971305;28;20232;-81
2022/07/29 00:10:58;;;;;;;5.40;1.95;;;;;;;18.10;52.72;101438.03;4969835;28;20035;-81
2022/07/29 00:13:23;;;;;;;2.88;1.85;;;;;;;18.09;53.13;101430.94;4981040;28;20065;-81
2022/07/29 00:15:48;;;;;;;5.50;1.90;;;;;;;18.11;52.91;101434.41;4981083;28;20022;-81
2022/07/29 00:18:14;;;;;;;4.40;1.95;;;;;;;18.14;53.06;101434.16;4992306;28;20035;-80
2022/07/29 00:20:39;;;;;;;1.90;1.60;;;;;;;18.09;53.51;101436.34;4999033;28;20037;-81
2022/07/29 00:23:04;;;;;;;3.80;2.00;;;;;;;17.98;53.62;101447.06;4986034;28;20053;-80
2022/07/29 00:25:30;;;;;;;3.67;1.80;;;;;;;17.97;53.80;101448.00;4984343;28;20030;-82
2022/07/29 00:27:55;;;;;;;4.15;1.80;;;;;;;17.93;54.80;101452.75;4975294;28;20050;-82
2022/07/29 00:30:20;;;;;;;5.03;2.45;;;;;;;17.98;53.96;101461.38;4977622;28;20062;-80
2022/07/29 00:32:46;;;;;;;3.15;1.70;;;;;;;17.99;54.01;101471.16;4984591;28;20030;-81
2022/07/29 00:37:55;;;;;;;18.63;16.98;;;;;;;18.01;54.72;101497.97;5006795;28;20110;-81
2022/07/29 00:40:20;;;;;;;36.50;33.53;;;;;;;18.02;53.57;101526.66;5002095;28;20082;-80
2022/07/29 00:42:48;;;;;;;27.20;24.85;;;;;;;17.97;53.75;101542.25;5012596;28;20033;-81
2022/07/29 00:45:14;;;;;;;23.02;20.88;;;;;;;17.96;53.44;101543.25;4996231;28;20051;-82
2022/07/29 00:47:39;;;;;;;18.58;13.15;;;;;;;17.94;53.60;101542.50;4995508;28;20066;-81
2022/07/29 00:50:07;;;;;;;15.32;10.70;;;;;;;17.99;56.66;101526.88;5004941;28;20022;-81
2022/07/29 00:52:33;;;;;;;18.33;14.48;;;;;;;17.65;63.73;101546.22;5003117;28;20077;-82
2022/07/29 00:54:59;;;;;;;10.40;7.60;;;;;;;16.93;66.80;101532.31;5000945;28;20086;-80
2022/07/29 00:57:24;;;;;;;6.78;4.28;;;;;;;16.41;67.93;101522.22;4983141;28;20463;-81
2022/07/29 00:59:49;;;;;;;8.00;5.85;;;;;;;15.99;71.95;101504.34;4972624;28;20046;-81
2022/07/29 01:02:15;;;;;;;6.95;5.60;;;;;;;15.68;73.66;101498.22;4979035;28;20062;-81
2022/07/29 01:04:40;;;;;;;7.82;4.30;;;;;;;15.43;76.51;101485.41;4985861;28;20325;-81
2022/07/29 01:07:07;;;;;;;8.13;4.40;;;;;;;15.37;80.13;101477.72;4986140;28;20028;-82
2022/07/29 01:09:34;;;;;;;7.22;4.28;;;;;;;15.27;82.40;101465.84;4986090;28;20037;-82
2022/07/29 01:12:01;;;;;;;5.80;3.72;;;;;;;15.17;83.11;101452.16;4982743;28;20049;-80
2022/07/29 01:14:28;;;;;;;8.70;3.50;;;;;;;14.98;82.63;101439.94;4977371;28;20034;-83
2022/07/29 01:17:07;;;;;;;6.78;3.55;;;;;;;14.79;82.85;101432.09;4985455;28;20452;-83
2022/07/29 01:19:50;;;;;;;10.13;3.70;;;;;;;14.64;82.87;101428.53;4990451;28;20034;-83
2022/07/29 01:22:34;;;;;;;7.97;4.00;;;;;;;14.59;85.87;101425.22;4989572;28;20038;-83
2022/07/29 01:25:11;;;;;;;8.77;3.90;;;;;;;14.55;88.01;101407.66;4993292;28;20038;-83
2022/07/29 01:27:59;;;;;;;9.05;3.70;;;;;;;14.51;88.06;101385.53;4989452;28;20084;-83
2022/07/29 01:30:25;;;;;;;6.80;3.72;;;;;;;14.45;89.49;101353.69;4988907;28;20057;-82
2022/07/29 01:32:56;;;;;;;7.97;3.95;;;;;;;14.38;90.48;101353.22;4984240;28;20026;-83
2022/07/29 01:35:36;;;;;;;6.53;3.92;;;;;;;14.31;89.91;101329.56;4978293;28;20042;-83
2022/07/29 01:38:09;;;;;;;7.20;3.47;;;;;;;14.24;89.71;101309.44;4974210;28;20072;-83
2022/07/29 01:40:46;;;;;;;5.93;3.53;;;;;;;14.16;88.87;101313.41;4998535;28;20087;-83
2022/07/29 01:43:19;;;;;;;6.55;4.10;;;;;;;14.16;89.61;101336.66;4979207;28;20124;-82
2022/07/29 01:46:01;;;;;;;7.93;4.20;;;;;;;14.22;91.38;101351.53;4971900;28;20035;-83
2022/07/29 01:48:46;;;;;;;8.35;4.20;;;;;;;14.33;90.68;101368.66;4979109;28;20042;-82
2022/07/29 01:51:17;;;;;;;7.95;4.22;;;;;;;14.38;91.89;101363.03;4991829;28;20046;-82
2022/07/29 01:53:53;;;;;;;7.60;3.78;;;;;;;14.39;92.01;101365.63;4986034;28;20030;-82
2022/07/29 01:56:20;;;;;;;6.20;3.60;;;;;;;14.38;90.04;101353.22;4983152;28;20121;-83
2022/07/29 01:58:49;;;;;;;6.88;3.80;;;;;;;14.37;88.89;101346.09;4993076;28;20053;-83
2022/07/29 02:01:16;;;;;;;5.93;3.45;;;;;;;14.32;89.57;101337.47;4983445;28;20049;-83
2022/07/29 02:03:44;;;;;;;8.77;4.28;;;;;;;14.43;91.53;101347.59;4980017;28;20396;-83
2022/07/29 02:06:12;;;;;;;5.90;4.20;;;;;;;14.56;91.44;101345.06;4979137;28;20117;-82
2022/07/29 02:08:39;;;;;;;6.72;3.95;;;;;;;14.58;91.29;101354.72;4979120;28;20069;-83
2022/07/29 02:11:06;;;;;;;7.78;4.68;;;;;;;14.65;92.77;101353.41;4969914;28;20027;-83
2022/07/29 02:13:35;;;;;;;7.43;3.88;;;;;;;14.70;91.76;101361.16;4970173;28;20226;-84
2022/07/29 02:16:04;;;;;;;5.00;3.60;;;;;;;14.70;91.08;101358.50;4983486;28;20093;-82
2022/07/29 02:18:30;;;;;;;8.70;4.35;;;;;;;14.66;90.26;101359.63;4984294;28;20125;-84
2022/07/29 02:20:58;;;;;;;5.82;3.30;;;;;;;14.64;90.31;101365.09;4983942;28;20110;-85
2022/07/29 02:23:24;;;;;;;8.00;3.90;;;;;;;14.51;89.17;101360.56;4997147;28;20030;-84
2022/07/29 02:25:53;;;;;;;4.72;3.70;;;;;;;14.58;89.36;101367.25;4980017;28;20046;-83
2022/07/29 02:28:21;;;;;;;7.93;3.42;;;;;;;14.55;89.94;101368.31;4984122;28;20033;-83
2022/07/29 02:30:50;;;;;;;8.73;4.45;;;;;;;14.62;91.63;101355.41;4995756;28;20033;-84
2022/07/29 02:33:17;;;;;;;4.88;3.85;;;;;;;14.72;92.82;101364.63;4999134;28;20051;-82
2022/07/29 02:35:46;;;;;;;5.53;3.70;;;;;;;14.74;90.85;101354.69;4974480;28;20129;-84
2022/07/29 02:40:59;;;;;;;5.45;4.13;;;;;;;14.67;92.05;101353.31;4990693;28;20137;-83
2022/07/29 02:43:25;;;;;;;4.93;4.10;;;;;;;14.63;91.58;101347.28;4989167;28;20034;-83
2022/07/29 02:45:54;;;;;;;7.28;4.38;;;;;;;14.69;92.34;101354.94;4976091;28;20085;-84
2022/07/29 02:48:25;;;;;;;7.60;4.47;;;;;;;14.80;93.41;101362.34;4988052;28;20036;-84
2022/07/29 02:50:59;;;;;;;7.82;4.53;;;;;;;14.73;91.53;101352.97;4981390;28;20499;-84
2022/07/29 02:53:26;;;;;;;;;;;;;;;14.79;88.17;101363.28;4973673;28;20053;-83
2022/07/29 02:55:57;;;;;;;5.43;4.20;;;;;;;14.73;91.65;101363.66;4986973;28;20020;-83
2022/07/29 02:58:30;;;;;;;7.95;4.50;;;;;;;14.65;91.23;101356.09;4988217;28;20041;-83
2022/07/29 03:00:57;;;;;;;8.57;4.68;;;;;;;14.51;91.51;101355.19;4983196;28;20388;-83
2022/07/29 03:03:28;;;;;;;5.97;4.80;;;;;;;14.46;92.75;101355.41;4991638;28;20518;-83
2022/07/29 03:05:59;;;;;;;6.00;4.47;;;;;;;14.42;91.70;101351.19;4988036;28;20140;-84
2022/07/29 03:08:26;;;;;;;6.78;5.00;;;;;;;14.44;92.85;101346.63;4984415;28;20033;-84
2022/07/29 03:10:53;;;;;;;6.07;4.65;;;;;;;14.37;92.27;101343.44;4987434;28;20205;-82
2022/07/29 03:13:19;;;;;;;5.22;4.40;;;;;;;14.32;92.37;101345.53;4995562;28;20128;-83
2022/07/29 03:15:45;;;;;;;7.13;4.50;;;;;;;14.25;91.79;101346.81;4990639;28;20475;-84
2022/07/29 03:18:11;;;;;;;6.95;4.80;;;;;;;14.31;92.64;101350.97;4985245;28;20104;-84
2022/07/29 03:20:38;;;;;;;6.82;4.95;;;;;;;14.31;91.65;101359.00;4973024;28;20031;-84
2022/07/29 03:23:04;;;;;;;6.95;4.70;;;;;;;14.37;91.58;101370.22;4974600;28;20027;-84
2022/07/29 03:25:30;;;;;;;6.80;4.80;;;;;;;14.38;90.46;101376.41;4979058;28;20034;-84
2022/07/29 03:27:56;;;;;;;5.30;4.80;;;;;;;14.40;90.73;101385.25;4979691;28;20030;-84
2022/07/29 03:30:21;;;;;;;6.30;4.50;;;;;;;14.40;90.76;101382.56;4984297;28;20027;-84
2022/07/29 03:32:46;;;;;;;6.45;4.80;;;;;;;14.48;91.65;101374.09;4976247;28;20050;-83
2022/07/29 03:35:12;;;;;;;7.38;4.93;;;;;;;14.43;90.24;101361.84;4987713;28;20546;-83
2022/07/29 03:37:37;;;;;;;6.25;5.28;;;;;;;14.47;92.45;101357.16;4986210;28;20042;-83
2022/07/29 03:40:07;;;;;;;6.88;4.88;;;;;;;14.55;91.31;101356.75;4984450;28;20114;-83
2022/07/29 03:42:35;;;;;;;6.00;4.65;;;;;;;14.54;91.07;101349.63;4984235;28;20117;-83
2022/07/29 03:45:05;;;;;;;7.05;5.03;;;;;;;14.42;91.16;101330.66;4973839;28;20031;-85
2022/07/29 03:47:32;;;;;;;8.75;5.57;;;;;;;14.40;91.60;101340.56;4981234;28;20054;-84
2022/07/29 03:50:06;;;;;;;9.18;5.63;;;;;;;14.38;91.12;101347.84;4986639;28;20022;-84
2022/07/29 03:52:31;;;;;;;5.60;5.00;;;;;;;14.41;91.14;101344.13;4982939;28;20034;-85
2022/07/29 03:54:57;;;;;;;6.75;5.80;;;;;;;14.39;91.47;101332.66;4989600;28;20036;-82
2022/07/29 03:57:25;;;;;;;6.10;5.32;;;;;;;14.42;92.07;101332.44;4987584;28;20111;-83
2022/07/29 03:59:54;;;;;;;5.40;4.65;;;;;;;14.43;91.11;101344.91;4988873;28;20038;-84
2022/07/29 04:02:20;;;;;;;6.40;5.35;;;;;;;14.43;91.71;101353.78;5006003;28;20038;-83
2022/07/29 04:04:45;;;;;;;8.63;5.65;;;;;;;14.42;91.38;101360.13;4996500;28;20027;-84
2022/07/29 04:07:14;;;;;;;7.38;4.88;;;;;;;14.43;91.18;101359.16;4991990;28;20037;-84
2022/07/29 04:09:40;;;;;;;11.40;5.68;;;;;;;14.46;90.19;101363.44;4991662;28;20018;-84
2022/07/29 04:12:06;;;;;;;7.93;5.40;;;;;;;14.45;90.47;101359.06;4998506;28;20058;-82
2022/07/29 04:14:32;;;;;;;5.80;5.25;;;;;;;14.39;90.52;101354.94;5003844;28;20034;-83
2022/07/29 04:16:57;;;;;;;7.78;6.15;;;;;;;14.42;90.46;101346.72;4988452;28;20031;-83
2022/07/29 04:19:23;;;;;;;7.45;5.82;;;;;;;14.45;89.88;101345.66;4985735;28;20073;-83
2022/07/29 04:21:48;;;;;;;7.40;5.63;;;;;;;14.39;89.75;101359.44;4983887;28;20551;-84
2022/07/29 04:24:14;;;;;;;7.15;6.03;;;;;;;14.38;90.69;101352.31;4996652;28;20030;-83
2022/07/29 04:26:39;;;;;;;9.07;5.60;;;;;;;14.24;90.38;101334.38;4985929;28;20037;-84
2022/07/29 04:29:04;;;;;;;6.88;5.60;;;;;;;14.23;90.79;101347.88;4983282;28;20456;-84
2022/07/29 04:31:30;;;;;;;8.52;5.80;;;;;;;14.26;90.19;101340.53;4974095;28;20559;-84
2022/07/29 04:33:55;;;;;;;7.78;5.60;;;;;;;14.25;90.44;101344.16;4979973;28;20420;-84
2022/07/29 04:36:20;;;;;;;8.98;5.55;;;;;;;14.30;90.40;101360.81;4980895;28;20030;-84
2022/07/29 04:38:45;;;;;;;13.50;5.90;;;;;;;14.33;90.96;101365.97;4984466;28;20030;-84
2022/07/29 04:41:11;;;;;;;7.60;5.80;;;;;;;14.34;90.00;101367.72;4972963;28;20022;-84
2022/07/29 04:43:36;;;;;;;10.35;5.90;;;;;;;14.45;90.94;101375.13;4973315;28;20033;-84
2022/07/29 04:46:03;;;;;;;8.90;5.82;;;;;;;14.39;89.66;101373.69;4981229;28;20546;-84
2022/07/29 04:48:28;;;;;;;6.90;5.90;;;;;;;14.51;89.98;101382.84;4976850;28;20085;-82
2022/07/29 04:50:53;;;;;;;9.40;5.63;;;;;;;14.58;88.65;101391.38;4980836;28;20033;-82
2022/07/29 04:53:19;;;;;;;7.65;6.28;;;;;;;14.59;89.14;101388.63;4978241;28;20499;-83
2022/07/29 04:55:45;;;;;;;7.15;5.68;;;;;;;14.64;87.92;101391.88;4971986;28;20125;-83
2022/07/29 04:58:10;;;;;;;6.28;5.65;;;;;;;14.67;87.80;101394.38;4972923;28;20041;-83
2022/07/29 05:00:36;;;;;;;7.65;5.95;;;;;;;14.76;87.56;101406.38;4975299;28;20068;-83
2022/07/29 05:03:02;;;;;;;6.68;5.90;;;;;;;14.71;87.66;101397.72;4979721;28;20487;-84
2022/07/29 05:05:27;;;;;;;8.30;5.60;;;;;;;14.72;87.07;101412.88;4983116;28;20022;-84
2022/07/29 05:07:53;;;;;;;7.78;5.75;;;;;;;14.73;88.09;101406.53;4981037;28;20038;-84
2022/07/29 05:10:18;;;;;;;7.88;5.80;;;;;;;14.77;87.98;101410.78;4986129;28;20028;-83
2022/07/29 05:12:43;;;;;;;6.97;5.70;;;;;;;14.88;89.20;101413.69;4980734;28;20503;-84
2022/07/29 05:15:09;;;;;;;7.55;6.35;;;;;;;14.87;88.37;101406.56;4979673;28;20494;-83
2022/07/29 05:17:34;;;;;;;7.80;5.88;;;;;;;14.89;88.51;101407.38;4983184;28;20109;-83
2022/07/29 05:20:00;;;;;;;6.75;6.05;;;;;;;14.92;89.66;101398.25;4982836;28;20038;-83
2022/07/29 05:22:25;;;;;;;9.35;6.28;;;;;;;14.83;88.80;101405.03;4975231;28;20070;-83
2022/07/29 05:24:50;;;;;;;7.95;5.82;;;;;;;14.70;88.29;101398.69;4969677;28;20118;-83
2022/07/29 05:27:16;;;;;;;10.18;5.90;;;;;;;14.70;89.07;101398.69;4978597;28;20416;-83
2022/07/29 05:29:41;;;;;;;6.72;6.10;;;;;;;14.66;88.72;101395.31;4977534;28;20500;-83
2022/07/29 05:32:06;;;;;;;8.00;5.75;;;;;;;14.58;89.62;101402.09;4972700;28;20113;-82
2022/07/29 05:34:32;;;;;;;8.10;6.25;;;;;;;14.47;89.50;101393.81;4987764;28;20041;-83
2022/07/29 05:36:57;;;;;;;6.18;5.57;;;;;;;14.42;89.66;101391.38;4978258;28;20103;-82
2022/07/29 05:39:23;;;;;;;7.30;6.20;;;;;;;14.45;90.21;101397.41;4982492;28;20037;-82
2022/07/29 05:41:48;;;;;;;8.27;6.13;;;;;;;14.43;89.63;101399.31;4971131;28;20613;-82
2022/07/29 05:44:14;;;;;;;6.70;6.00;;;;;;;14.50;90.61;101390.94;4973443;28;20131;-82
2022/07/29 05:46:39;;;;;;;9.93;6.32;;;;;;;14.46;88.99;101387.56;4972841;28;20058;-82
2022/07/29 05:49:06;;;;;;;7.20;5.85;;;;;;;14.48;89.70;101392.84;4975141;28;20073;-82
2022/07/29 05:51:32;;;;;;;8.43;5.78;;;;;;;14.52;89.20;101400.63;4977380;28;20026;-82
2022/07/29 05:53:57;;;;;;;6.82;5.93;;;;;;;14.50;89.49;101405.19;4982371;28;20034;-82
2022/07/29 05:56:23;;;;;;;8.63;6.07;;;;;;;14.49;89.30;101405.31;4972840;28;20022;-83
2022/07/29 05:58:48;;;;;;;9.90;6.13;;;;;;;14.48;89.15;101400.88;4970061;28;20050;-83
2022/07/29 06:01:13;;;;;;;7.13;6.03;;;;;;;14.49;89.38;101407.97;4975720;28;20129;-84
2022/07/29 06:03:40;;;;;;;8.75;6.38;;;;;;;14.44;89.05;101409.06;4973173;28;20174;-83
2022/07/29 06:06:07;;;;;;;8.85;6.30;;;;;;;14.46;89.40;101395.59;4975142;28;20031;-83
2022/07/29 06:08:33;;;;;;;9.50;6.20;;;;;;;14.44;88.83;101409.06;4984746;28;20395;-83
2022/07/29 06:10:58;;;;;;;8.10;6.65;;;;;;;14.44;88.55;101406.41;4983451;28;20069;-82
2022/07/29 06:13:24;;;;;;;8.07;6.53;;;;;;;14.50;88.73;101402.53;4969830;28;20165;-82
2022/07/29 06:15:49;;;;;;;8.38;6.55;;;;;;;14.48;88.57;101395.53;4975335;28;20337;-82
2022/07/29 06:18:15;;;;;;;8.60;6.43;;;;;;;14.50;88.60;101393.63;4971179;28;20110;-82
2022/07/29 06:20:40;;;;;;;10.45;7.10;;;;;;;14.59;88.46;101404.69;4971472;28;20026;-82
2022/07/29 06:23:05;;;;;;;9.30;6.82;;;;;;;14.68;88.78;101403.28;4971877;28;20532;-82
2022/07/29 06:25:34;;;;;;;9.77;6.88;;;;;;;14.79;88.87;101410.66;4969715;28;20022;-82
2022/07/29 06:27:59;;;;;;;7.70;6.90;;;;;;;14.89;88.01;101412.72;4969846;28;20082;-83
2022/07/29 06:30:25;;;;;;;10.02;6.93;;;;;;;14.95;87.96;101408.78;4980234;28;20129;-82
2022/07/29 06:32:50;;;;;;;8.65;7.20;;;;;;;15.00;87.44;101408.53;4971362;28;20166;-82
2022/07/29 06:35:15;;;;;;;9.93;7.40;;;;;;;15.04;86.89;101399.34;4988013;28;20076;-82
2022/07/29 06:37:41;;;;;;;10.35;7.38;;;;;;;15.01;85.82;101404.91;4975260;28;20114;-81
2022/07/29 06:42:50;;;;;;;12.57;9.52;;;;;;;14.91;86.36;101412.63;4970350;28;20073;-81
2022/07/29 06:45:16;;;;;;;10.20;8.25;;;;;;;14.93;86.70;101411.59;4983334;28;20066;-82
2022/07/29 06:47:41;;;;;;;9.70;7.88;;;;;;;14.96;86.10;101407.84;4976349;28;20458;-82
2022/07/29 06:50:08;;;;;;;12.07;10.13;;;;;;;14.93;85.84;101405.38;4993010;28;20033;-81
2022/07/29 06:52:33;;;;;;;8.90;8.07;;;;;;;14.98;86.37;101407.75;4987119;28;20036;-82
2022/07/29 06:54:59;;;;;;;10.32;7.85;;;;;;;15.04;85.67;101407.38;4974796;28;20113;-82
2022/07/29 06:57:24;;;;;;;11.20;8.70;;;;;;;15.02;85.21;101410.16;4985511;28;20431;-81
2022/07/29 06:59:49;;;;;;;16.15;12.15;;;;;;;15.06;86.17;101416.22;4985310;28;20038;-81
2022/07/29 07:02:15;;;;;;;8.82;7.90;;;;;;;15.09;85.11;101424.94;4979244;28;20409;-81
2022/07/29 07:04:40;;;;;;;8.57;7.68;;;;;;;15.19;84.82;101434.13;4976741;28;20062;-81
2022/07/29 07:07:05;;;;;;;10.40;7.70;;;;;;;15.26;84.28;101431.94;4983215;28;20026;-81
2022/07/29 07:09:30;;;;;;;11.30;7.57;;;;;;;15.39;84.07;101427.56;4978983;28;20030;-81
2022/07/29 07:11:56;;;;;;;13.32;11.05;;;;;;;15.54;84.45;101436.44;4985486;28;20377;-82
2022/07/29 07:14:21;;;;;;;9.88;7.82;;;;;;;15.63;82.48;101440.38;4988041;28;20030;-82
2022/07/29 07:16:47;;;;;;;9.00;7.20;;;;;;;15.79;81.75;101438.50;4973972;28;20055;-81
2022/07/29 07:19:12;;;;;;;10.82;6.93;;;;;;;15.93;80.49;101451.06;4981885;28;20193;-81
2022/07/29 07:21:37;;;;;;;9.10;6.95;;;;;;;16.08;79.97;101438.47;4978199;28;20042;-80
2022/07/29 07:24:03;;;;;;;9.23;7.13;;;;;;;16.22;80.13;101448.31;4986489;28;20105;-82
2022/07/29 07:26:28;;;;;;;9.90;7.32;;;;;;;16.38;79.83;101443.66;4986214;28;20049;-81
2022/07/29 07:28:54;;;;;;;11.30;6.95;;;;;;;16.74;78.96;101442.22;5002279;28;20038;-82
2022/07/29 07:31:19;;;;;;;9.90;7.40;;;;;;;17.37;76.53;101445.00;4995760;28;20045;-82
2022/07/29 07:33:45;;;;;;;8.27;7.38;;;;;;;18.28;76.55;101439.41;4992145;28;20468;-82
2022/07/29 07:36:10;;;;;;;10.50;7.18;;;;;;;18.92;71.27;101442.69;4988510;28;20031;-81
2022/07/29 07:38:35;;;;;;;8.98;6.78;;;;;;;19.43;67.04;101446.84;5011586;28;20037;-82
2022/07/29 07:41:01;;;;;;;9.30;6.20;;;;;;;19.74;65.75;101457.97;4991615;28;20030;-80
2022/07/29 07:43:26;;;;;;;8.38;5.97;;;;;;;20.07;64.79;101457.09;5000813;28;20073;-81
2022/07/29 07:45:52;;;;;;;8.73;6.10;;;;;;;20.31;63.36;101454.22;4987383;28;20030;-81
2022/07/29 07:48:17;;;;;;;7.82;6.40;;;;;;;20.59;61.43;101453.69;4988420;28;20117;-82
2022/07/29 07:50:43;;;;;;;6.70;6.00;;;;;;;21.01;60.33;101453.75;4994747;28;20128;-81
2022/07/29 07:53:09;;;;;;;10.10;7.35;;;;;;;21.61;59.27;101459.44;4980586;28;20030;-81
2022/07/29 07:55:39;;;;;;;7.18;5.65;;;;;;;22.21;56.54;101463.16;4985139;28;20030;-82
2022/07/29 07:58:05;;;;;;;7.80;5.40;;;;;;;22.70;55.73;101466.81;4987698;28;20030;-81
2022/07/29 08:00:32;;;;;;;6.38;5.50;;;;;;;22.94;53.31;101460.13;4970998;28;20047;-81
2022/07/29 08:02:57;;;;;;;5.82;4.97;;;;;;;22.97;52.53;101457.13;4975320;28;20038;-81
2022/07/29 08:05:22;;;;;;;6.70;5.15;;;;;;;23.32;52.98;101465.50;4977664;28;20021;-81
2022/07/29 08:07:47;;;;;;;6.88;4.82;;;;;;;23.44;52.04;101471.63;4972636;28;20736;-82
2022/07/29 08:10:14;;;;;;;8.60;5.43;;;;;;;23.46;51.92;101474.22;4983720;28;20392;-82
2022/07/29 08:12:40;;;;;;;6.43;5.30;;;;;;;23.94;49.55;101465.06;4971758;28;20074;-80
2022/07/29 08:15:07;;;;;;;6.18;5.03;;;;;;;24.29;49.07;101465.19;4972287;28;20285;-80
2022/07/29 08:17:32;;;;;;;8.02;6.05;;;;;;;24.65;48.08;101450.78;4975369;28;20361;-82
2022/07/29 08:19:58;;;;;;;5.65;4.80;;;;;;;24.64;46.60;101446.34;4994584;28;20197;-81
2022/07/29 08:22:23;;;;;;;8.30;4.30;;;;;;;24.98;48.41;101452.78;4985844;28;20077;-81
2022/07/29 08:24:52;;;;;;;5.72;3.95;;;;;;;25.53;45.06;101451.69;4982846;28;20041;-81
2022/07/29 08:27:19;;;;;;;5.20;4.22;;;;;;;25.91;44.90;101453.13;4973301;28;20031;-81
2022/07/29 08:29:44;;;;;;;5.95;4.13;;;;;;;26.23;43.33;101451.56;4980515;28;20113;-79
2022/07/29 08:32:09;;;;;;;6.07;4.63;;;;;;;26.49;42.76;101454.19;4983918;28;20161;-81
2022/07/29 08:34:35;;;;;;;4.93;4.00;;;;;;;26.58;42.18;101455.91;4976527;28;20038;-80
2022/07/29 08:37:00;;;;;;;6.38;4.30;;;;;;;26.95;41.27;101462.81;4979390;28;20090;-81
2022/07/29 08:39:25;;;;;;;7.05;4.07;;;;;;;27.11;40.13;101467.44;4987328;28;20538;-81
2022/07/29 08:41:51;;;;;;;8.23;4.20;;;;;;;27.36;40.11;101465.56;4981060;28;20258;-81
2022/07/29 08:44:18;;;;;;;5.15;4.30;;;;;;;27.47;39.02;101479.72;4971520;28;20117;-81
2022/07/29 08:46:43;;;;;;;6.70;4.15;;;;;;;27.73;39.62;101478.69;4979208;28;20078;-81
2022/07/29 08:49:09;;;;;;;7.28;4.57;;;;;;;28.01;39.06;101468.16;4975696;28;20023;-82
2022/07/29 08:51:36;;;;;;;5.38;4.38;;;;;;;28.02;39.23;101476.19;4980630;28;20042;-81
2022/07/29 08:54:03;;;;;;;5.47;4.18;;;;;;;28.42;38.80;101474.28;4979167;28;20033;-81
2022/07/29 08:56:29;;;;;;;5.90;4.22;;;;;;;28.75;37.97;101469.47;4970591;28;20035;-80
2022/07/29 08:58:56;;;;;;;7.15;4.60;;;;;;;29.52;37.65;101463.88;4974998;28;20566;-80
2022/07/29 09:01:25;;;;;;;6.75;4.50;;;;;;;29.69;35.94;101467.31;4979856;28;20185;-81
2022/07/29 09:03:55;;;;;;;7.28;4.50;;;;;;;29.87;36.21;101474.31;4978110;28;20035;-81
2022/07/29 09:06:21;;;;;;;6.43;4.47;;;;;;;30.61;34.44;101474.22;4981162;28;20038;-79
2022/07/29 09:08:48;;;;;;;6.85;3.90;;;;;;;30.50;34.16;101475.56;4970959;28;20031;-79
2022/07/29 09:11:14;;;;;;;6.93;3.88;;;;;;;30.42;34.45;101476.53;4973992;28;20069;-80
2022/07/29 09:13:39;;;;;;;5.40;3.85;;;;;;;30.52;32.85;101473.50;4980017;28;20492;-80
2022/07/29 09:16:05;;;;;;;5.32;4.15;;;;;;;30.47;33.13;101475.97;4975429;28;20400;-79
2022/07/29 09:18:38;;;;;;;6.15;4.13;;;;;;;30.57;34.72;101479.25;4981012;28;20031;-81
2022/07/29 09:24:08;;;;;;;5.57;3.70;;;;;;;31.97;33.66;101481.34;4976616;28;20042;-79
2022/07/29 09:26:45;;;;;;;4.95;3.88;;;;;;;32.85;31.11;101473.19;4989650;28;20029;-81
2022/07/29 09:29:19;;;;;;;5.95;3.90;;;;;;;32.87;29.14;101482.13;4978003;28;20499;-82
2022/07/29 09:31:47;;;;;;;5.95;3.85;;;;;;;33.06;29.06;101486.81;4983327;28;20022;-82
2022/07/29 09:34:15;;;;;;;5.65;3.90;;;;;;;32.70;28.28;101481.66;4984663;28;20435;-81
2022/07/29 09:36:50;;;;;;;9.35;7.65;;;;;;;32.96;28.46;101487.25;4986592;28;20037;-82
2022/07/29 09:39:34;;;;;;;5.32;4.03;;;;;;;33.77;28.89;101494.44;4988026;28;20058;-82
2022/07/29 09:42:03;;;;;;;6.50;3.55;;;;;;;33.94;28.07;101494.84;4970557;28;20047;-82
2022/07/29 09:44:49;;;;;;;4.65;3.70;;;;;;;34.07;27.38;101483.81;4975857;28;20041;-82
2022/07/29 09:47:18;;;;;;;4.93;3.63;;;;;;;33.54;27.08;101483.88;4977331;28;20476;-82
2022/07/29 09:49:58;;;;;;;7.00;3.72;;;;;;;34.33;28.63;101488.38;4987587;28;20064;-81
2022/07/29 09:52:28;;;;;;;5.20;4.07;;;;;;;34.83;26.90;101483.00;4982100;28;20468;-80
2022/07/29 09:55:07;;;;;;;6.82;3.97;;;;;;;34.97;27.27;101477.38;4983692;28;20060;-83
2022/07/29 09:57:33;;;;;;;5.65;4.32;;;;;;;35.28;25.42;101479.25;4978987;28;20030;-82
2022/07/29 10:00:31;;;;;;;7.22;4.03;;;;;;;35.75;26.51;101480.56;4985992;28;20298;-81
2022/07/29 10:03:00;;;;;;;5.68;4.00;;;;;;;36.01;24.70;101484.13;4972460;28;20218;-80
2022/07/29 10:05:29;;;;;;;5.80;4.07;;;;;;;36.10;23.69;101469.72;4981869;28;20061;-81
2022/07/29 10:07:57;;;;;;;6.78;4.00;;;;;;;35.88;24.55;101472.09;4989115;28;20041;-81
2022/07/29 10:10:26;;;;;;;6.13;4.15;;;;;;;35.95;24.27;101469.22;4973061;28;20589;-82
2022/07/29 10:13:01;;;;;;;4.45;3.72;;;;;;;35.74;25.48;101461.38;4988503;28;20034;-83
2022/07/29 10:15:31;;;;;;;4.70;3.70;;;;;;;35.84;23.52;101470.84;4985514;28;20089;-83
2022/07/29 10:17:58;;;;;;;6.60;4.05;;;;;;;36.05;23.76;101477.03;4987156;28;20018;-83
2022/07/29 10:20:23;;;;;;;6.18;4.07;;;;;;;35.65;23.94;101471.91;4989040;28;20526;-83
2022/07/29 10:22:51;;;;;;;5.05;4.32;;;;;;;36.15;23.81;101478.19;4982000;28;20034;-84
2022/07/29 10:25:17;;;;;;;5.63;4.15;;;;;;;36.28;23.16;101479.94;4982346;28;20035;-83
2022/07/29 10:27:44;;;;;;;4.80;3.70;;;;;;;36.88;23.06;101476.34;4981468;28;20038;-84
2022/07/29 10:30:10;;;;;;;4.82;3.60;;;;;;;36.52;22.53;101480.06;4976614;28;20102;-82
2022/07/29 10:33:01;;;;;;;5.65;3.72;;;;;;;37.44;23.77;101475.03;4978654;28;20061;-83
2022/07/29 10:35:49;;;;;;;6.88;4.40;;;;;;;37.90;22.65;101472.47;4991189;28;20105;-83
2022/07/29 10:38:39;;;;;;;6.07;4.53;;;;;;;37.39;22.27;101478.53;4972363;28;20121;-83
2022/07/29 10:41:28;;;;;;;9.48;4.45;;;;;;;37.76;22.78;101474.66;4985289;28;20088;-82
2022/07/29 10:44:12;;;;;;;8.70;6.72;;;;;;;37.96;22.51;101469.56;4988831;28;20054;-83
2022/07/29 10:46:39;;;;;;;7.40;5.15;;;;;;;37.77;21.75;101473.56;4989100;28;20038;-83
2022/07/29 10:49:16;;;;;;;8.65;5.53;;;;;;;38.02;22.89;101465.81;4978593;28;20027;-84
2022/07/29 10:52:05;;;;;;;5.72;5.13;;;;;;;38.73;22.21;101460.81;4994831;28;20062;-84
2022/07/29 10:54:39;;;;;;;5.70;4.70;;;;;;;38.88;21.34;101460.28;4986351;28;20038;-82
2022/07/29 10:57:20;;;;;;;8.60;5.68;;;;;;;39.54;21.08;101464.13;5001285;28;20065;-81
2022/07/29 10:59:47;;;;;;;11.40;5.38;;;;;;;39.36;20.29;101456.06;5007659;28;20050;-83
2022/07/29 11:02:31;;;;;;;6.03;5.43;;;;;;;38.88;21.15;101465.84;4991853;28;20050;-85
2022/07/29 11:04:56;;;;;;;5.45;4.95;;;;;;;38.35;21.05;101467.91;4983815;28;20026;-83
2022/07/29 11:07:22;;;;;;;5.53;4.53;;;;;;;38.88;20.52;101463.06;4990637;28;20450;-83
2022/07/29 11:10:12;;;;;;;7.10;5.03;;;;;;;39.19;21.42;101466.38;4993317;28;20282;-83
2022/07/29 11:12:37;;;;;;;9.18;5.28;;;;;;;39.13;19.38;101462.66;4992414;28;20053;-82
2022/07/29 11:15:05;;;;;;;8.37;4.10;;;;;;;39.12;20.08;101466.53;4993188;28;20023;-81
2022/07/29 11:17:53;;;;;;;4.53;3.60;;;;;;;39.21;19.79;101456.63;5000639;28;20030;-81
2022/07/29 11:20:41;;;;;;;8.27;3.97;;;;;;;39.80;20.78;101457.03;4989058;28;20094;-82
2022/07/29 11:23:29;;;;;;;8.48;4.18;;;;;;;39.98;19.67;101458.66;4983823;28;20499;-82
2022/07/29 11:26:24;;;;;;;5.60;4.30;;;;;;;39.86;19.67;101463.50;4985640;28;20045;-84
2022/07/29 11:28:50;;;;;;;5.20;4.70;;;;;;;38.93;19.41;101463.16;4981287;28;20044;-83
2022/07/29 11:31:19;;;;;;;5.90;4.90;;;;;;;38.72;19.84;101461.94;4987680;28;20121;-82
2022/07/29 11:33:45;;;;;;;5.97;4.05;;;;;;;38.93;19.73;101457.59;4979178;28;20034;-82
2022/07/29 11:36:12;;;;;;;7.93;4.82;;;;;;;38.86;19.23;101463.31;4991287;28;20146;-83
2022/07/29 11:38:38;;;;;;;7.50;3.88;;;;;;;39.00;19.74;101449.91;4990537;28;20729;-83
2022/07/29 11:41:23;;;;;;;4.50;3.80;;;;;;;39.38;20.16;101462.25;4987517;28;20931;-82